createdAt,value
2018-04-07T03:32:34.922Z,15.07
2018-04-07T03:35:08.591Z,14.43
2018-04-07T03:37:43.232Z,12.63
2018-04-07T03:40:17.111Z,13.43
2018-04-07T03:42:50.980Z,14.30
2018-04-07T03:45:24.580Z,12.93
2018-04-07T03:47:59.156Z,14.05
2018-04-07T03:50:32.916Z,14.90
2018-04-07T03:53:06.684Z,14.18
2018-04-07T03:55:40.798Z,12.85
2018-04-07T03:58:34.572Z,13.60
2018-04-07T04:01:08.347Z,13.90
2018-04-07T04:03:42.328Z,15.25
2018-04-07T04:06:15.995Z,14.40
2018-04-07T04:08:50.608Z,14.90
2018-04-07T04:11:24.338Z,12.98
2018-04-07T04:13:58.195Z,13.93
2018-04-07T04:16:31.924Z,13.27
2018-04-07T04:19:06.456Z,14.75
2018-04-07T04:21:40.157Z,15.20
2018-04-07T04:24:14.041Z,13.57
2018-04-07T04:26:47.896Z,12.63
2018-04-07T04:29:21.708Z,12.65
2018-04-07T04:31:56.402Z,13.82
2018-04-07T04:34:30.245Z,13.27
2018-04-07T04:37:04.036Z,14.95
2018-04-07T04:39:37.741Z,13.70
2018-04-07T04:42:11.485Z,14.52
2018-04-07T04:44:45.228Z,14.43
2018-04-07T04:47:19.029Z,13.35
2018-04-07T04:49:53.667Z,13.80
2018-04-07T04:52:27.542Z,13.13
2018-04-07T04:55:01.635Z,13.05
2018-04-07T04:57:35.648Z,12.63
2018-04-07T05:00:10.954Z,13.70
2018-04-07T05:02:44.751Z,13.98
2018-04-07T05:05:18.584Z,13.07
2018-04-07T05:07:52.399Z,13.98
2018-04-07T05:10:26.244Z,13.45
2018-04-07T05:13:00.060Z,13.60
2018-04-07T05:15:33.771Z,14.85
2018-04-07T05:18:07.483Z,13.85
2018-04-07T05:20:41.403Z,12.13
2018-04-07T05:23:15.135Z,14.20
2018-04-07T05:25:48.880Z,13.98
2018-04-07T05:28:22.629Z,13.70
2018-04-07T05:30:56.388Z,14.35
2018-04-07T05:33:30.159Z,13.35
2018-04-07T05:36:04.440Z,13.27
2018-04-07T05:38:38.110Z,13.70
2018-04-07T05:41:11.973Z,13.48
2018-04-07T05:43:46.528Z,13.73
2018-04-07T05:46:20.302Z,14.55
2018-04-07T05:48:54.880Z,13.80
2018-04-07T05:51:29.375Z,13.40
2018-04-07T05:54:03.080Z,13.30
2018-04-07T05:56:37.176Z,13.62
2018-04-07T05:59:11.860Z,14.07
2018-04-07T06:01:45.459Z,15.02
2018-04-07T06:04:19.443Z,14.57
2018-04-07T06:06:53.132Z,14.45
2018-04-07T06:09:27.696Z,14.02
2018-04-07T06:12:02.262Z,15.18
2018-04-07T06:14:37.025Z,14.48
2018-04-07T06:17:10.836Z,15.30
2018-04-07T06:19:44.964Z,15.52
2018-04-07T06:22:18.617Z,14.80
2018-04-07T06:24:52.528Z,14.52
2018-04-07T06:27:26.287Z,13.40
2018-04-07T06:30:00.156Z,15.15
2018-04-07T06:32:33.997Z,14.98
2018-04-07T06:35:07.812Z,16.35
2018-04-07T06:37:41.616Z,13.98
2018-04-07T06:40:16.160Z,15.18
2018-04-07T06:42:50.003Z,15.30
2018-04-07T06:45:24.860Z,16.42
2018-04-07T06:47:58.532Z,15.18
2018-04-07T06:50:33.187Z,14.25
2018-04-07T06:53:06.907Z,14.15
2018-04-07T06:55:40.791Z,14.75
2018-04-07T06:58:14.611Z,13.90
2018-04-07T07:00:49.262Z,14.93
2018-04-07T07:03:22.963Z,13.88
2018-04-07T07:05:57.882Z,15.23
2018-04-07T07:08:31.576Z,15.05
2018-04-07T07:11:05.337Z,15.35
2018-04-07T07:13:39.989Z,24.00
2018-04-07T07:16:14.564Z,16.30
2018-04-07T07:18:49.034Z,15.30
2018-04-07T07:21:22.972Z,15.70
2018-04-07T07:23:58.300Z,15.25
2018-04-07T07:26:32.044Z,15.85
2018-04-07T07:29:06.700Z,15.25
2018-04-07T07:31:40.624Z,15.73
2018-04-07T07:34:14.477Z,22.00
2018-04-07T07:36:48.304Z,15.50
2018-04-07T07:39:22.876Z,15.68
2018-04-07T07:41:57.082Z,15.18
2018-04-07T07:44:31.629Z,15.52
2018-04-07T07:47:05.318Z,16.40
2018-04-07T07:49:39.152Z,15.55
2018-04-07T07:52:13.671Z,15.00
2018-04-07T07:54:47.354Z,16.12
2018-04-07T07:57:21.432Z,17.40
2018-04-07T07:59:55.211Z,14.52
2018-04-07T08:02:29.026Z,16.37
2018-04-07T08:05:02.781Z,16.20
2018-04-07T08:07:36.685Z,14.93
2018-04-07T08:10:10.473Z,15.13
2018-04-07T08:12:44.350Z,14.75
2018-04-07T08:15:18.022Z,14.05
2018-04-07T08:17:52.731Z,15.90
2018-04-07T08:20:27.484Z,15.38
2018-04-07T08:23:01.419Z,15.68
2018-04-07T08:25:36.003Z,14.55
2018-04-07T08:28:09.834Z,15.35
2018-04-07T08:30:44.418Z,13.27
2018-04-07T08:33:18.103Z,14.45
2018-04-07T08:35:53.520Z,16.77
2018-04-07T08:38:27.402Z,15.40
2018-04-07T08:41:01.288Z,15.00
2018-04-07T08:43:35.046Z,15.10
2018-04-07T08:46:08.914Z,16.00
2018-04-07T08:48:42.824Z,14.60
2018-04-07T08:51:17.692Z,15.10
2018-04-07T08:53:51.509Z,17.73
2018-04-07T08:56:25.284Z,13.90
2018-04-07T08:58:59.875Z,17.20
2018-04-07T09:01:34.416Z,15.30
2018-04-07T09:04:08.006Z,15.50
2018-04-07T09:06:43.369Z,15.23
2018-04-07T09:09:17.947Z,14.77
2018-04-07T09:11:51.674Z,15.60
2018-04-07T09:14:25.502Z,15.03
2018-04-07T09:16:59.229Z,16.20
2018-04-07T09:19:33.105Z,13.90
2018-04-07T09:22:06.963Z,14.67
2018-04-07T09:24:40.728Z,21.43
2018-04-07T09:27:15.686Z,15.03
2018-04-07T09:29:49.542Z,15.63
2018-04-07T09:32:23.444Z,14.60
2018-04-07T09:34:57.869Z,14.20
2018-04-07T09:37:31.689Z,14.33
2018-04-07T09:40:05.528Z,14.13
2018-04-07T09:42:39.458Z,13.70
2018-04-07T09:45:14.047Z,14.10
2018-04-07T09:47:47.857Z,13.27
2018-04-07T09:50:21.656Z,13.37
2018-04-07T09:52:56.267Z,13.03
2018-04-07T09:55:30.788Z,13.90
2018-04-07T09:58:04.533Z,13.63
2018-04-07T10:00:38.463Z,12.97
2018-04-07T10:03:12.948Z,13.43
2018-04-07T10:05:46.693Z,13.53
2018-04-07T10:08:21.165Z,13.70
2018-04-07T10:10:54.864Z,14.00
2018-04-07T10:13:28.822Z,13.83
2018-04-07T10:16:02.655Z,15.30
2018-04-07T10:18:36.421Z,12.60
2018-04-07T10:21:10.244Z,13.60
2018-04-07T10:23:44.789Z,12.60
2018-04-07T10:26:18.585Z,13.20
2018-04-07T10:28:52.305Z,12.70
2018-04-07T10:31:26.148Z,13.40
2018-04-07T10:33:59.952Z,12.63
2018-04-07T10:36:33.856Z,13.20
2018-04-07T10:39:07.556Z,13.30
2018-04-07T10:41:41.496Z,13.20
2018-04-07T10:44:15.277Z,12.60
2018-04-07T10:46:49.060Z,13.40
2018-04-07T10:49:22.767Z,12.30
2018-04-07T10:51:57.892Z,13.10
2018-04-07T10:54:31.701Z,11.90
2018-04-07T10:57:05.977Z,12.93
2018-04-07T10:59:39.764Z,12.13
2018-04-07T11:02:14.361Z,11.50
2018-04-07T11:04:48.175Z,11.60
2018-04-07T11:07:21.999Z,11.03
2018-04-07T11:09:56.584Z,11.43
2018-04-07T11:12:31.219Z,10.00
2018-04-07T11:15:04.941Z,10.00
2018-04-07T11:17:39.833Z,10.80
2018-04-07T11:20:13.689Z,10.83
2018-04-07T11:22:47.514Z,11.67
2018-04-07T11:25:22.107Z,10.63
2018-04-07T11:27:56.271Z,11.43
2018-04-07T11:30:29.989Z,11.07
2018-04-07T11:33:03.847Z,10.30
2018-04-07T11:35:38.631Z,12.10
2018-04-07T11:38:12.569Z,11.77
2018-04-07T11:40:47.088Z,10.63
2018-04-07T11:43:20.880Z,13.00
2018-04-07T11:45:54.601Z,11.70
2018-04-07T11:48:28.403Z,11.17
2018-04-07T11:51:02.928Z,12.40
2018-04-07T11:53:36.728Z,11.63
2018-04-07T11:56:11.890Z,11.57
2018-04-07T11:58:45.631Z,11.07
2018-04-07T12:01:19.968Z,11.00
2018-04-07T12:03:53.870Z,11.10
2018-04-07T12:06:27.751Z,10.73
2018-04-07T12:09:02.292Z,11.57
2018-04-07T12:11:36.227Z,10.10
2018-04-07T12:14:09.932Z,11.03
2018-04-07T12:16:43.831Z,9.97
2018-04-07T12:19:18.693Z,11.53
2018-04-07T12:21:53.285Z,9.93
2018-04-07T12:24:27.048Z,10.10
2018-04-07T12:27:01.120Z,11.10
2018-04-07T12:29:35.519Z,9.83
2018-04-07T12:32:10.198Z,10.37
2018-04-07T12:34:44.676Z,11.40
2018-04-07T12:37:18.578Z,12.80
2018-04-07T12:39:52.353Z,10.70
2018-04-07T12:42:26.251Z,12.37
2018-04-07T12:45:00.100Z,9.70
2018-04-07T12:47:34.016Z,10.30
2018-04-07T12:50:08.528Z,10.93
2018-04-07T12:52:42.285Z,8.67
2018-04-07T12:55:16.863Z,9.40
2018-04-07T12:57:50.628Z,9.30
2018-04-07T13:00:24.454Z,9.60
2018-04-07T13:02:59.610Z,11.40
2018-04-07T13:05:33.852Z,10.30
2018-04-07T13:08:07.696Z,11.23
2018-04-07T13:10:42.282Z,10.63
2018-04-07T13:13:16.009Z,10.13
2018-04-07T13:15:49.789Z,10.10
2018-04-07T13:18:23.596Z,10.27
2018-04-07T13:20:57.391Z,10.60
2018-04-07T13:23:31.146Z,10.67
2018-04-07T13:26:05.096Z,11.13
2018-04-07T13:28:38.965Z,10.27
2018-04-07T13:31:12.686Z,11.60
2018-04-07T13:33:46.840Z,11.47
2018-04-07T13:36:20.666Z,11.00
2018-04-07T13:38:54.580Z,10.67
2018-04-07T13:41:28.348Z,11.63
2018-04-07T13:44:02.149Z,11.57
2018-04-07T13:46:35.922Z,11.43
2018-04-07T13:49:09.798Z,11.07
2018-04-07T13:51:44.307Z,11.10
2018-04-07T13:54:18.244Z,11.70
2018-04-07T13:56:51.926Z,10.57
2018-04-07T13:59:25.772Z,11.70
2018-04-07T14:01:59.936Z,10.80
2018-04-07T14:04:34.445Z,10.57
2018-04-07T14:07:08.579Z,10.03
2018-04-07T14:09:42.399Z,10.27
2018-04-07T14:12:17.317Z,9.33
2018-04-07T14:14:50.909Z,10.93
2018-04-07T14:17:24.978Z,11.07
2018-04-07T14:19:58.688Z,10.30
2018-04-07T14:22:32.435Z,10.47
2018-04-07T14:25:06.268Z,10.40
2018-04-07T14:27:40.079Z,9.17
2018-04-07T14:30:13.922Z,10.30
2018-04-07T14:32:48.264Z,10.33
2018-04-07T14:35:22.113Z,8.93
2018-04-07T14:37:55.976Z,9.23
2018-04-07T14:40:30.590Z,11.20
2018-04-07T14:43:04.441Z,9.67
2018-04-07T14:45:38.269Z,9.40
2018-04-07T14:48:12.075Z,9.20
2018-04-07T14:50:45.932Z,9.27
2018-04-07T14:53:20.568Z,8.93
2018-04-07T14:55:54.262Z,8.27
2018-04-07T14:58:28.854Z,7.93
2018-04-07T15:01:03.448Z,8.83
2018-04-07T15:03:37.752Z,7.30
2018-04-07T15:06:11.447Z,7.70
2018-04-07T15:08:46.125Z,8.00
2018-04-07T15:11:20.025Z,7.50
2018-04-07T15:13:53.963Z,6.90
2018-04-07T15:16:27.996Z,7.07
2018-04-07T15:19:01.837Z,6.50
2018-04-07T15:21:36.383Z,6.00
2018-04-07T15:24:11.037Z,6.80
2018-04-07T15:26:45.644Z,5.77
2018-04-07T15:29:19.528Z,6.40
2018-04-07T15:31:53.476Z,7.00
2018-04-07T15:34:27.384Z,5.97
2018-04-07T15:37:01.100Z,6.80
2018-04-07T15:39:35.709Z,6.90
2018-04-07T15:42:09.601Z,7.23
2018-04-07T15:44:43.404Z,6.90
2018-04-07T15:47:17.255Z,6.40
2018-04-07T15:49:51.056Z,6.93
2018-04-07T15:52:24.912Z,6.10
2018-04-07T15:54:59.480Z,5.50
2018-04-07T15:57:34.043Z,6.53
2018-04-07T16:00:07.829Z,6.67
2018-04-07T16:02:42.437Z,6.40
2018-04-07T16:05:16.221Z,6.73
2018-04-07T16:07:51.071Z,7.13
2018-04-07T16:10:24.784Z,7.40
2018-04-07T16:12:59.312Z,6.73
2018-04-07T16:15:33.123Z,6.80
2018-04-07T16:18:07.005Z,6.80
2018-04-07T16:20:41.618Z,6.57
2018-04-07T16:23:15.661Z,6.30
2018-04-07T16:25:50.283Z,7.37
2018-04-07T16:28:24.132Z,6.50
2018-04-07T16:30:58.676Z,8.37
2018-04-07T16:33:32.460Z,7.20
2018-04-07T16:36:07.017Z,7.40
2018-04-07T16:38:41.544Z,7.73
2018-04-07T16:41:15.271Z,6.93
2018-04-07T16:43:49.060Z,8.23
2018-04-07T16:46:23.676Z,8.50
2018-04-07T16:48:58.321Z,6.20
2018-04-07T16:51:32.028Z,8.40
2018-04-07T16:54:05.731Z,5.10
2018-04-07T16:56:39.575Z,5.00
2018-04-07T16:59:13.389Z,6.13
2018-04-07T17:01:47.217Z,5.30
2018-04-07T17:04:21.893Z,4.50
2018-04-07T17:06:56.482Z,5.70
2018-04-07T17:09:30.257Z,5.43
2018-04-07T17:12:04.104Z,5.27
2018-04-07T17:14:39.469Z,6.40
2018-04-07T17:17:13.274Z,5.10
2018-04-07T17:19:47.042Z,7.40
2018-04-07T17:22:21.473Z,7.43
2018-04-07T17:24:55.362Z,8.20
2018-04-07T17:27:29.924Z,7.53
2018-04-07T17:30:04.544Z,6.60
2018-04-07T17:32:38.269Z,7.47
2018-04-07T17:35:12.915Z,7.80
2018-04-07T17:37:46.684Z,24.07
2018-04-07T17:40:21.346Z,12.20
2018-04-07T17:42:55.108Z,7.57
2018-04-07T17:45:29.738Z,7.90
2018-04-07T17:48:03.557Z,8.40
2018-04-07T17:50:37.500Z,8.60
2018-04-07T17:53:11.305Z,9.97
2018-04-07T17:55:45.788Z,14.70
2018-04-07T17:58:19.516Z,12.18
2018-04-07T18:00:53.376Z,28.52
2018-04-07T18:03:27.988Z,37.53
2018-04-07T18:06:01.845Z,14.98
2018-04-07T18:08:36.543Z,19.85
2018-04-07T18:11:11.197Z,10.45
2018-04-07T18:13:45.096Z,9.95
2018-04-07T18:16:19.973Z,10.18
2018-04-07T18:18:54.484Z,10.10
2018-04-07T18:21:28.274Z,19.33
2018-04-07T18:24:02.769Z,11.20
2018-04-07T18:26:36.569Z,10.20
2018-04-07T18:29:11.186Z,12.43
2018-04-07T18:31:45.040Z,10.50
2018-04-07T18:34:18.945Z,12.15
2018-04-07T18:36:52.810Z,11.85
2018-04-07T18:39:26.539Z,11.32
2018-04-07T18:42:01.156Z,10.98
2018-04-07T18:44:34.916Z,11.02
2018-04-07T18:47:08.688Z,10.85
2018-04-07T18:49:43.169Z,10.60
2018-04-07T18:52:17.408Z,10.15
2018-04-07T18:54:51.107Z,10.40
2018-04-07T18:57:25.607Z,11.18
2018-04-07T18:59:59.754Z,11.48
2018-04-07T19:02:33.720Z,10.50
2018-04-07T19:05:07.516Z,12.10
2018-04-07T19:07:41.348Z,10.82
2018-04-07T19:10:15.898Z,11.30
2018-04-07T19:12:49.618Z,11.43
2018-04-07T19:15:23.444Z,11.00
2018-04-07T19:17:58.007Z,10.32
2018-04-07T19:20:31.779Z,10.95
2018-04-07T19:23:05.556Z,10.38
2018-04-07T19:25:39.435Z,12.02
2018-04-07T19:28:14.079Z,11.75
2018-04-07T19:30:48.601Z,11.80
2018-04-07T19:33:22.322Z,11.00
2018-04-07T19:35:56.233Z,12.30
2018-04-07T19:38:30.716Z,11.45
2018-04-07T19:41:04.704Z,11.63
2018-04-07T19:43:39.242Z,11.50
2018-04-07T19:46:13.007Z,11.15
2018-04-07T19:48:47.578Z,11.18
2018-04-07T19:51:21.407Z,11.43
2018-04-07T19:53:55.231Z,12.25
2018-04-07T19:56:29.335Z,10.63
2018-04-07T19:59:03.827Z,11.23
2018-04-07T20:01:38.382Z,12.45
2018-04-07T20:04:12.057Z,12.32
2018-04-07T20:06:47.429Z,12.65
2018-04-07T20:09:21.253Z,11.40
2018-04-07T20:11:56.225Z,11.40
2018-04-07T20:14:29.861Z,11.85
2018-04-07T20:17:04.087Z,12.02
2018-04-07T20:19:37.809Z,11.82
2018-04-07T20:22:11.941Z,12.27
2018-04-07T20:24:46.647Z,12.18
2018-04-07T20:27:20.470Z,12.05
2018-04-07T20:29:54.345Z,12.60
2018-04-07T20:32:28.080Z,11.10
2018-04-07T20:35:02.739Z,11.38
2018-04-07T20:37:37.487Z,11.57
2018-04-07T20:40:11.435Z,12.02
2018-04-07T20:42:46.020Z,11.00
2018-04-07T20:45:19.970Z,12.05
2018-04-07T20:47:53.801Z,13.00
2018-04-07T20:50:27.547Z,12.05
2018-04-07T20:53:01.385Z,13.02
2018-04-07T20:55:35.965Z,11.40
2018-04-07T20:58:10.217Z,11.80
